EET,Max TemperatureF,Mean TemperatureF,Min TemperatureF,Max Dew PointF,MeanDew PointF,Min DewpointF,Max Humidity, Mean Humidity, Min Humidity, Max Sea Level PressureIn, Mean Sea Level PressureIn, Min Sea Level PressureIn, Max VisibilityMiles, Mean VisibilityMiles, Min VisibilityMiles, Max Wind SpeedMPH, Mean Wind SpeedMPH, Max Gust SpeedMPH,PrecipitationIn, CloudCover, Events, WindDirDegrees
2013-3-1,66,55,44,46,35,23,93,54,23,30.09,30.05,30.01,6,6,6,7,2,,0.00,2,,338
2013-3-2,80,63,46,41,27,12,81,33,9,30.06,30.02,29.98,,,,0,0,,0.00,,,-1
2013-3-3,84,72,59,45,24,7,46,20,5,30.01,29.96,29.89,,,,17,3,,0.00,,,6
2013-3-4,69,60,50,50,38,27,94,50,26,30.06,30.01,29.98,,,,9,2,,0.00,,,282
2013-3-5,60,54,48,46,40,36,93,61,39,30.15,30.08,30.04,6,6,6,12,4,,0.00,3,,306
2013-3-6,60,50,39,41,36,28,100,65,29,30.21,30.17,30.12,,,,8,1,,0.00,,,359
2013-3-7,71,53,35,34,25,19,81,37,14,30.18,30.10,30.01,,,,7,1,,0.00,,,90
2013-3-8,75,63,51,32,21,12,32,20,10,30.04,29.92,29.83,,,,16,4,,0.00,,,140
2013-3-9,71,61,51,34,28,21,44,29,16,30.04,29.96,29.89,,,,14,2,,0.00,,,331
2013-3-10,68,56,44,34,30,21,50,36,24,30.09,30.06,30.04,,,,12,2,,0.00,,,322
2013-3-11,78,63,48,39,34,30,58,34,20,30.12,30.09,30.06,,,,6,1,,0.00,,,57
2013-3-12,82,68,55,36,26,18,36,20,11,30.12,30.05,29.98,,,,13,4,,0.00,,,141
2013-3-13,86,72,59,36,19,14,32,14,7,30.04,30.01,29.95,,,,9,3,,0.00,,,84
2013-3-14,87,70,53,34,21,-2,38,18,4,30.01,29.98,29.92,,,,12,3,,0.00,,,104
2013-3-15,87,76,64,50,39,19,41,27,18,29.95,29.92,29.89,5,4,4,25,8,,0.00,,,154
2013-3-16,75,64,53,57,46,37,100,57,38,30.01,29.95,29.89,4,4,2,21,12,,0.00,,,311
2013-3-17,62,54,46,41,33,21,71,50,25,30.12,30.06,30.04,6,6,6,14,7,,0.00,1,,309
2013-3-18,62,52,42,41,35,28,81,56,27,30.12,30.07,30.01,6,6,6,14,7,,0.00,2,,341
2013-3-19,73,58,44,41,35,28,76,46,19,30.01,29.93,29.86,6,6,4,21,6,,0.00,2,,328
2013-3-20,66,55,44,46,40,32,100,68,28,30.06,29.99,29.92,4,3,1,12,7,,0.00,,,310
2013-3-21,80,65,50,43,31,12,76,39,8,30.06,30.00,29.92,,,,7,3,,0.00,,,58
2013-3-22,84,72,60,34,26,19,36,18,9,29.95,29.84,29.80,6,2,1,28,9,,0.00,2,,204
2013-3-23,68,58,48,48,34,18,87,46,15,30.04,29.98,29.95,4,3,2,24,8,,0.00,,,313
2013-3-24,68,58,48,45,34,18,82,52,15,30.09,30.05,30.01,,,,10,8,,0.00,,,336
2013-3-25,78,62,46,39,29,18,71,34,10,30.09,30.04,29.98,,,,9,5,,0.00,,,355
2013-3-26,82,66,51,48,20,12,63,21,8,30.01,29.94,29.86,4,3,2,18,4,,0.00,,,174
2013-3-27,71,60,50,48,30,18,87,40,13,30.09,30.01,29.95,4,4,4,16,9,,0.00,,,324
2013-3-28,77,62,48,45,29,21,54,32,12,30.09,30.05,30.01,,,,9,4,,0.00,,,340
2013-3-29,78,66,53,39,31,23,58,29,13,30.06,30.04,30.01,,,,12,5,,0.00,,,332
2013-3-30,84,68,53,34,27,19,44,22,9,30.04,29.98,29.92,,,,7,4,,0.00,,,326
2013-3-31,84,70,57,30,19,1,27,17,4,29.98,29.94,29.92,,,,12,3,,0.00,,,334